Metar z połowy godziny Komunikat METAR ze strony awiacja.imgw.pl Metar Mil EPSN METAR EPSN 271500Z 12006KT 9999 BKN080 01/M01 Q0994 RMK 010 087 7/7=